createdAt,value
2018-08-17T00:01:31.995Z,22.13
2018-08-17T00:04:00.564Z,22.12
2018-08-17T00:06:29.147Z,22.05
2018-08-17T00:08:57.839Z,21.93
2018-08-17T00:11:26.448Z,21.91
2018-08-17T00:13:55.055Z,21.87
2018-08-17T00:16:24.036Z,21.81
2018-08-17T00:18:52.592Z,21.79
2018-08-17T00:21:21.171Z,21.78
2018-08-17T00:23:49.794Z,21.78
2018-08-17T00:26:18.384Z,21.77
2018-08-17T00:28:46.944Z,21.72
2018-08-17T00:31:16.140Z,21.67
2018-08-17T00:33:45.186Z,21.64
2018-08-17T00:36:13.767Z,21.62
2018-08-17T00:38:42.474Z,21.64
2018-08-17T00:41:11.056Z,21.66
2018-08-17T00:43:39.620Z,21.67
2018-08-17T00:46:09.223Z,21.68
2018-08-17T00:48:37.780Z,21.72
2018-08-17T00:51:07.081Z,21.72
2018-08-17T00:53:35.687Z,21.72
2018-08-17T00:56:04.361Z,21.74
2018-08-17T00:58:33.001Z,21.72
2018-08-17T01:01:01.719Z,21.88
2018-08-17T01:03:30.726Z,21.75
2018-08-17T01:05:59.320Z,21.75
2018-08-17T01:08:28.055Z,21.76
2018-08-17T01:10:56.660Z,21.92
2018-08-17T01:13:25.255Z,21.97
2018-08-17T01:15:53.887Z,21.96
2018-08-17T01:18:22.460Z,21.95
2018-08-17T01:20:51.070Z,21.93
2018-08-17T01:23:19.801Z,21.92
2018-08-17T01:25:48.379Z,21.90
2018-08-17T01:28:17.082Z,21.77
2018-08-17T01:30:45.679Z,21.81
2018-08-17T01:33:14.250Z,21.75
2018-08-17T01:35:42.807Z,21.75
2018-08-17T01:38:11.420Z,21.76
2018-08-17T01:40:39.987Z,21.87
2018-08-17T01:43:08.592Z,21.85
2018-08-17T01:45:37.231Z,21.82
2018-08-17T01:48:05.919Z,21.81
2018-08-17T01:50:34.566Z,21.81
2018-08-17T01:53:03.247Z,21.80
2018-08-17T01:55:32.148Z,21.76
2018-08-17T01:58:00.700Z,21.63
2018-08-17T02:00:29.668Z,21.61
2018-08-17T02:02:58.243Z,21.60
2018-08-17T02:05:26.856Z,21.58
2018-08-17T02:07:55.472Z,21.53
2018-08-17T02:10:24.096Z,21.52
2018-08-17T02:12:52.699Z,21.52
2018-08-17T02:15:21.352Z,21.50
2018-08-17T02:17:49.963Z,21.48
2018-08-17T02:20:18.555Z,21.48
2018-08-17T02:22:47.155Z,21.62
2018-08-17T02:25:15.719Z,21.50
2018-08-17T02:27:44.299Z,21.48
2018-08-17T02:30:13.208Z,21.45
2018-08-17T02:32:41.789Z,21.43
2018-08-17T02:35:10.392Z,21.38
2018-08-17T02:37:38.982Z,21.34
2018-08-17T02:40:07.560Z,21.31
2018-08-17T02:42:36.119Z,21.28
2018-08-17T02:45:06.044Z,21.23
2018-08-17T02:47:34.627Z,21.33
2018-08-17T02:50:03.226Z,21.31
2018-08-17T02:52:31.986Z,21.31
2018-08-17T02:55:00.549Z,21.26
2018-08-17T02:57:29.123Z,21.25
2018-08-17T02:59:57.826Z,21.23
2018-08-17T03:02:26.492Z,21.16
2018-08-17T03:04:55.061Z,21.14
2018-08-17T03:07:23.745Z,21.11
2018-08-17T03:09:52.318Z,21.13
2018-08-17T03:12:20.888Z,21.10
2018-08-17T03:14:49.598Z,21.06
2018-08-17T03:17:18.174Z,21.11
2018-08-17T03:19:46.724Z,21.10
2018-08-17T03:22:15.339Z,21.10
2018-08-17T03:24:43.924Z,21.13
2018-08-17T03:27:12.484Z,21.15
2018-08-17T03:29:41.083Z,21.15
2018-08-17T03:32:09.631Z,21.15
2018-08-17T03:34:38.195Z,21.16
2018-08-17T03:37:07.159Z,21.15
2018-08-17T03:39:35.845Z,21.20
2018-08-17T03:42:04.544Z,21.22
2018-08-17T03:44:33.176Z,21.24
2018-08-17T03:47:01.776Z,21.23
2018-08-17T03:49:30.310Z,21.24
2018-08-17T03:51:59.291Z,21.23
2018-08-17T03:54:27.878Z,21.24
2018-08-17T03:56:56.455Z,21.24
2018-08-17T03:59:25.176Z,21.29
2018-08-17T04:01:53.731Z,21.29
2018-08-17T04:04:22.303Z,21.33
2018-08-17T04:06:50.867Z,21.35
2018-08-17T04:09:19.429Z,21.34
2018-08-17T04:11:48.014Z,21.31
2018-08-17T04:14:16.918Z,21.31
2018-08-17T04:16:45.511Z,21.33
2018-08-17T04:19:14.056Z,21.32
2018-08-17T04:21:42.656Z,21.30
2018-08-17T04:24:11.329Z,21.24
2018-08-17T04:26:39.859Z,21.21
2018-08-17T04:29:08.464Z,21.20
2018-08-17T04:31:37.028Z,21.18
2018-08-17T04:34:05.631Z,21.21
2018-08-17T04:36:34.243Z,21.21
2018-08-17T04:39:02.973Z,21.24
2018-08-17T04:41:31.556Z,21.21
2018-08-17T04:44:00.143Z,21.18
2018-08-17T04:46:28.708Z,21.18
2018-08-17T04:48:57.280Z,21.17
2018-08-17T04:51:25.888Z,21.21
2018-08-17T04:53:54.456Z,21.20
2018-08-17T04:56:23.046Z,21.22
2018-08-17T04:58:51.639Z,21.28
2018-08-17T05:01:20.208Z,21.29
2018-08-17T05:03:48.760Z,21.29
2018-08-17T05:06:17.396Z,21.31
2018-08-17T05:08:45.951Z,21.31
2018-08-17T05:11:14.511Z,21.33
2018-08-17T05:13:43.108Z,21.35
2018-08-17T05:16:11.695Z,21.39
2018-08-17T05:18:40.239Z,21.43
2018-08-17T05:21:08.919Z,21.47
2018-08-17T05:23:37.516Z,21.42
2018-08-17T05:26:06.228Z,21.42
2018-08-17T05:28:34.840Z,21.43
2018-08-17T05:31:03.429Z,21.42
2018-08-17T05:33:32.025Z,21.49
2018-08-17T05:36:00.924Z,21.57
2018-08-17T05:38:29.575Z,21.68
2018-08-17T05:40:58.188Z,21.79
2018-08-17T05:43:26.789Z,21.88
2018-08-17T05:45:55.359Z,21.92
2018-08-17T05:48:23.940Z,21.99
2018-08-17T05:50:52.643Z,22.14
2018-08-17T05:53:21.196Z,22.32
2018-08-17T05:55:49.809Z,22.38
2018-08-17T05:58:18.455Z,22.49
2018-08-17T06:00:47.107Z,22.61
2018-08-17T06:03:15.709Z,22.74
2018-08-17T06:05:44.304Z,22.79
2018-08-17T06:08:12.892Z,22.88
2018-08-17T06:10:41.464Z,22.85
2018-08-17T06:13:10.096Z,22.85
2018-08-17T06:15:38.715Z,22.97
2018-08-17T06:18:07.337Z,23.08
2018-08-17T06:20:35.927Z,23.12
2018-08-17T06:23:04.548Z,23.16
2018-08-17T06:25:33.131Z,23.19
2018-08-17T06:28:02.082Z,23.32
2018-08-17T06:30:30.665Z,23.64
2018-08-17T06:32:59.250Z,23.93
2018-08-17T06:35:27.981Z,24.18
2018-08-17T06:37:56.620Z,24.41
2018-08-17T06:40:25.196Z,24.62
2018-08-17T06:42:53.915Z,24.81
2018-08-17T06:45:22.499Z,25.01
2018-08-17T06:47:51.123Z,25.22
2018-08-17T06:50:19.758Z,25.43
2018-08-17T06:52:48.339Z,25.78
2018-08-17T06:55:16.908Z,26.01
2018-08-17T06:57:45.511Z,26.04
2018-08-17T07:00:16.024Z,26.43
2018-08-17T07:02:45.844Z,26.82
2018-08-17T07:05:14.759Z,27.10
2018-08-17T07:07:43.688Z,27.36
2018-08-17T07:10:13.671Z,27.69
2018-08-17T07:12:42.850Z,27.97
2018-08-17T07:15:11.583Z,28.28
2018-08-17T07:17:41.061Z,28.51
2018-08-17T07:20:11.557Z,28.59
2018-08-17T07:22:40.367Z,28.72
2018-08-17T07:25:09.578Z,28.86
2018-08-17T07:27:38.567Z,28.86
2018-08-17T07:30:08.659Z,29.11
2018-08-17T07:32:37.227Z,29.38
2018-08-17T07:35:07.459Z,29.58
2018-08-17T07:37:36.407Z,29.86
2018-08-17T07:40:05.052Z,30.15
2018-08-17T07:42:33.634Z,30.39
2018-08-17T07:45:02.299Z,30.62
2018-08-17T07:47:30.898Z,30.83
2018-08-17T07:49:59.476Z,30.98
2018-08-17T07:52:28.405Z,31.06
2018-08-17T07:54:56.976Z,31.24
2018-08-17T07:57:25.589Z,31.03
2018-08-17T07:59:54.272Z,30.92
2018-08-17T08:02:22.836Z,30.90
2018-08-17T08:04:51.429Z,30.99
2018-08-17T08:07:20.062Z,30.49
2018-08-17T08:09:48.636Z,30.67
2018-08-17T08:12:17.211Z,31.18
2018-08-17T08:14:45.812Z,31.12
2018-08-17T08:17:14.400Z,31.33
2018-08-17T08:19:42.964Z,31.86
2018-08-17T08:22:11.630Z,32.23
2018-08-17T08:24:40.309Z,32.32
2018-08-17T08:27:09.160Z,32.59
2018-08-17T08:29:37.767Z,32.61
2018-08-17T08:32:06.386Z,32.83
2018-08-17T08:34:34.952Z,31.84
2018-08-17T08:37:03.556Z,32.50
2018-08-17T08:39:32.132Z,33.01
2018-08-17T08:42:00.752Z,33.41
2018-08-17T08:44:29.428Z,33.73
2018-08-17T08:46:58.012Z,33.84
2018-08-17T08:49:26.596Z,33.69
2018-08-17T08:51:55.215Z,33.59
2018-08-17T08:54:23.801Z,33.31
2018-08-17T08:56:52.360Z,33.21
2018-08-17T08:59:21.311Z,32.77
2018-08-17T09:01:49.960Z,32.61
2018-08-17T09:04:18.592Z,32.30
2018-08-17T09:06:47.200Z,33.06
2018-08-17T09:09:15.757Z,33.35
2018-08-17T09:11:44.342Z,33.56
2018-08-17T09:14:13.034Z,33.93
2018-08-17T09:16:41.618Z,33.69
2018-08-17T09:19:10.183Z,33.68
2018-08-17T09:21:38.874Z,34.01
2018-08-17T09:24:07.517Z,34.34
2018-08-17T09:26:36.083Z,34.48
2018-08-17T09:29:05.232Z,34.33
2018-08-17T09:31:33.859Z,34.77
2018-08-17T09:34:02.412Z,34.33
2018-08-17T09:36:31.303Z,33.28
2018-08-17T09:38:59.872Z,32.85
2018-08-17T09:41:28.440Z,32.22
2018-08-17T09:43:57.367Z,32.00
2018-08-17T09:46:25.952Z,31.75
2018-08-17T09:48:54.783Z,31.97
2018-08-17T09:51:23.544Z,32.70
2018-08-17T09:53:52.063Z,33.02
2018-08-17T09:56:20.630Z,33.11
2018-08-17T09:58:49.479Z,33.29
2018-08-17T10:01:23.292Z,33.72
2018-08-17T10:03:57.543Z,34.40
2018-08-17T10:06:31.407Z,34.44
2018-08-17T10:10:07.484Z,34.86
2018-08-17T10:12:36.096Z,35.70
2018-08-17T10:15:04.831Z,35.36
2018-08-17T10:17:33.432Z,35.30
2018-08-17T10:20:02.016Z,34.75
2018-08-17T10:22:30.613Z,34.82
2018-08-17T10:25:06.283Z,35.26
2018-08-17T10:27:34.844Z,35.38
2018-08-17T10:30:03.419Z,34.74
2018-08-17T10:32:35.488Z,35.33
2018-08-17T10:35:04.997Z,35.22
2018-08-17T10:37:33.580Z,35.59
2018-08-17T10:40:02.473Z,34.91
2018-08-17T10:42:31.051Z,34.15
2018-08-17T10:44:59.612Z,33.79
2018-08-17T10:47:28.259Z,33.72
2018-08-17T10:49:58.955Z,33.78
2018-08-17T10:52:27.544Z,33.52
2018-08-17T10:54:56.152Z,33.28
2018-08-17T10:57:24.807Z,32.60
2018-08-17T10:59:53.427Z,32.20
2018-08-17T11:02:22.015Z,31.72
2018-08-17T11:04:50.635Z,31.55
2018-08-17T11:07:23.948Z,31.31
2018-08-17T11:09:52.864Z,31.09
2018-08-17T11:12:21.472Z,30.89
2018-08-17T11:14:50.324Z,30.80
2018-08-17T11:17:18.908Z,30.68
2018-08-17T11:19:47.491Z,30.75
2018-08-17T11:22:17.204Z,31.14
2018-08-17T11:24:45.828Z,31.57
2018-08-17T11:27:14.435Z,32.52
2018-08-17T11:29:43.060Z,33.97
2018-08-17T11:32:11.825Z,35.37
2018-08-17T11:34:40.535Z,36.84
2018-08-17T11:37:09.181Z,37.28
2018-08-17T11:39:41.550Z,38.83
2018-08-17T11:42:10.180Z,38.51
2018-08-17T11:44:38.741Z,38.25
2018-08-17T11:47:07.387Z,38.85
2018-08-17T11:49:36.144Z,38.02
2018-08-17T11:52:04.741Z,37.29
2018-08-17T11:54:33.319Z,36.39
2018-08-17T11:57:01.945Z,35.52
2018-08-17T11:59:30.556Z,35.14
2018-08-17T12:01:59.268Z,34.53
2018-08-17T12:04:27.977Z,34.30
2018-08-17T12:06:56.611Z,34.09
2018-08-17T12:09:25.212Z,34.01
2018-08-17T12:11:54.908Z,33.84
2018-08-17T12:14:23.600Z,33.43
2018-08-17T12:16:52.207Z,33.49
2018-08-17T12:19:20.824Z,33.39
2018-08-17T12:21:49.399Z,33.23
2018-08-17T12:24:18.088Z,33.35
2018-08-17T12:26:52.750Z,33.14
2018-08-17T12:29:21.328Z,33.29
2018-08-17T12:31:50.352Z,33.08
2018-08-17T12:34:19.293Z,33.09
2018-08-17T12:36:47.853Z,33.22
2018-08-17T12:39:16.436Z,33.45
2018-08-17T12:41:45.025Z,33.19
2018-08-17T12:44:13.628Z,33.36
2018-08-17T12:46:42.168Z,33.51
2018-08-17T12:49:10.759Z,33.15
2018-08-17T12:51:39.357Z,33.08
2018-08-17T12:54:10.312Z,33.06
2018-08-17T12:56:38.909Z,32.96
2018-08-17T12:59:07.499Z,33.22
2018-08-17T13:01:36.140Z,33.42
2018-08-17T13:04:04.715Z,33.44
2018-08-17T13:06:33.332Z,33.45
2018-08-17T13:09:02.044Z,33.35
2018-08-17T13:11:30.659Z,33.23
2018-08-17T13:14:03.405Z,33.35
2018-08-17T13:16:31.997Z,33.51
2018-08-17T13:19:00.571Z,33.60
2018-08-17T13:21:29.204Z,33.51
2018-08-17T13:23:57.773Z,33.45
2018-08-17T13:26:26.373Z,33.34
2018-08-17T13:28:55.076Z,33.16
2018-08-17T13:31:23.780Z,33.09
2018-08-17T13:33:52.386Z,33.14
2018-08-17T13:36:21.071Z,33.11
2018-08-17T13:38:49.678Z,33.09
2018-08-17T13:41:18.289Z,33.02
2018-08-17T13:43:47.187Z,33.09
2018-08-17T13:46:16.153Z,33.04
2018-08-17T13:48:45.108Z,33.22
2018-08-17T13:51:13.828Z,33.14
2018-08-17T13:53:42.402Z,33.08
2018-08-17T13:56:10.995Z,33.16
2018-08-17T13:58:39.916Z,33.06
2018-08-17T14:01:08.548Z,32.91
2018-08-17T14:03:37.136Z,32.89
2018-08-17T14:06:06.392Z,32.88
2018-08-17T14:08:34.956Z,33.00
2018-08-17T14:11:03.515Z,32.80
2018-08-17T14:13:32.145Z,32.68
2018-08-17T14:16:00.700Z,32.64
2018-08-17T14:18:29.283Z,32.67
2018-08-17T14:20:57.880Z,32.57
2018-08-17T14:23:26.439Z,32.58
2018-08-17T14:25:55.032Z,32.47
2018-08-17T14:28:23.707Z,32.36
2018-08-17T14:30:52.276Z,32.44
2018-08-17T14:33:20.821Z,32.40
2018-08-17T14:35:49.447Z,32.41
2018-08-17T14:38:28.920Z,32.34
2018-08-17T14:40:57.844Z,32.23
2018-08-17T14:43:27.004Z,32.13
2018-08-17T14:45:55.588Z,31.98
2018-08-17T14:48:24.615Z,31.99
2018-08-17T14:50:53.264Z,31.95
2018-08-17T14:53:21.863Z,31.79
2018-08-17T14:55:50.617Z,31.71
2018-08-17T14:58:19.179Z,31.69
2018-08-17T15:00:47.779Z,31.53
2018-08-17T15:03:16.512Z,31.62
2018-08-17T15:05:45.131Z,31.62
2018-08-17T15:08:13.780Z,31.64
2018-08-17T15:10:42.709Z,31.59
2018-08-17T15:13:11.358Z,31.60
2018-08-17T15:15:39.907Z,31.23
2018-08-17T15:18:08.536Z,31.01
2018-08-17T15:20:37.132Z,30.87
2018-08-17T15:23:05.818Z,30.72
2018-08-17T15:25:34.440Z,30.59
2018-08-17T15:28:03.024Z,30.54
2018-08-17T15:30:31.633Z,30.34
2018-08-17T15:33:00.251Z,30.22
2018-08-17T15:35:28.847Z,30.16
2018-08-17T15:37:57.452Z,30.14
2018-08-17T15:40:26.132Z,30.14
2018-08-17T15:43:03.722Z,30.11
2018-08-17T15:45:32.548Z,29.97
2018-08-17T15:48:01.116Z,29.96
2018-08-17T15:50:29.679Z,29.96
2018-08-17T15:52:58.496Z,29.84
2018-08-17T15:55:27.092Z,29.71
2018-08-17T15:57:55.693Z,29.76
2018-08-17T16:00:24.405Z,29.76
2018-08-17T16:02:52.996Z,29.69
2018-08-17T16:05:21.608Z,29.75
2018-08-17T16:07:50.340Z,29.74
2018-08-17T16:10:19.001Z,29.75
2018-08-17T16:12:47.571Z,29.78
2018-08-17T16:15:16.195Z,29.79
2018-08-17T16:17:44.763Z,29.85
2018-08-17T16:20:13.973Z,29.83
2018-08-17T16:22:43.443Z,29.91
2018-08-17T16:25:12.978Z,29.92
2018-08-17T16:27:42.538Z,29.93
2018-08-17T16:30:13.296Z,30.03
2018-08-17T16:32:41.954Z,30.08
2018-08-17T16:35:10.684Z,30.10
2018-08-17T16:37:44.081Z,30.11
2018-08-17T16:40:12.665Z,30.11
2018-08-17T16:42:41.248Z,30.10
2018-08-17T16:45:10.429Z,30.09
2018-08-17T16:47:39.020Z,29.99
2018-08-17T16:50:09.472Z,29.95
2018-08-17T16:52:38.194Z,29.88
2018-08-17T16:55:06.784Z,29.85
2018-08-17T16:57:35.589Z,29.83
2018-08-17T17:00:04.985Z,29.84
2018-08-17T17:02:33.544Z,29.81
2018-08-17T17:05:02.263Z,29.83
2018-08-17T17:07:32.005Z,29.85
2018-08-17T17:10:01.123Z,29.79
2018-08-17T17:12:29.771Z,29.75
2018-08-17T17:15:35.728Z,29.72
2018-08-17T17:18:08.328Z,29.66
2018-08-17T17:20:38.322Z,29.66
2018-08-17T17:23:09.339Z,29.61
2018-08-17T17:25:37.995Z,29.56
2018-08-17T17:28:07.327Z,29.59
2018-08-17T17:30:47.386Z,29.54
2018-08-17T17:33:16.002Z,29.53
2018-08-17T17:35:45.020Z,29.52
2018-08-17T17:38:13.887Z,29.45
2018-08-17T17:40:42.911Z,29.45
2018-08-17T17:43:11.601Z,29.31
2018-08-17T17:45:41.028Z,29.24
2018-08-17T17:48:10.195Z,29.19
2018-08-17T17:50:38.864Z,29.15
2018-08-17T17:53:07.691Z,29.14
2018-08-17T17:55:49.162Z,29.08
2018-08-17T17:58:18.159Z,29.01
2018-08-17T18:00:59.020Z,28.90
2018-08-17T18:03:29.924Z,28.88
2018-08-17T18:06:07.564Z,28.86
2018-08-17T18:08:36.355Z,28.78
2018-08-17T18:11:04.943Z,28.69
2018-08-17T18:13:33.509Z,28.62
2018-08-17T18:16:02.448Z,28.52
2018-08-17T18:18:31.204Z,28.50
2018-08-17T18:20:59.831Z,28.45
2018-08-17T18:23:28.583Z,28.42
2018-08-17T18:25:57.255Z,28.28
2018-08-17T18:28:25.824Z,28.25
2018-08-17T18:30:54.448Z,28.21
2018-08-17T18:33:23.059Z,28.06
2018-08-17T18:35:51.620Z,27.94
2018-08-17T18:38:20.315Z,27.85
2018-08-17T18:40:48.908Z,27.81
2018-08-17T18:43:17.471Z,27.74
2018-08-17T18:45:46.372Z,27.68
2018-08-17T18:48:14.932Z,27.63
2018-08-17T18:50:43.503Z,27.61
2018-08-17T18:53:12.208Z,27.55
2018-08-17T18:55:40.783Z,27.50
2018-08-17T18:58:09.340Z,27.40
2018-08-17T19:00:37.985Z,27.35
2018-08-17T19:03:06.633Z,27.33
2018-08-17T19:05:35.204Z,27.25
2018-08-17T19:08:03.808Z,27.23
2018-08-17T19:10:32.454Z,27.08
2018-08-17T19:13:00.943Z,27.07
2018-08-17T19:15:30.993Z,27.00
2018-08-17T19:17:59.614Z,26.92
2018-08-17T19:20:28.212Z,26.91
2018-08-17T19:22:56.843Z,26.83
2018-08-17T19:25:25.421Z,26.82
2018-08-17T19:27:53.983Z,26.67
2018-08-17T19:30:27.892Z,26.57
2018-08-17T19:32:57.604Z,26.63
2018-08-17T19:35:26.200Z,26.63
2018-08-17T19:37:54.859Z,26.56
2018-08-17T19:40:23.740Z,26.50
2018-08-17T19:42:52.382Z,26.39
2018-08-17T19:45:21.714Z,26.41
2018-08-17T19:47:50.716Z,26.39
2018-08-17T19:50:19.305Z,26.33
2018-08-17T19:52:48.041Z,26.32
2018-08-17T19:55:16.706Z,26.20
2018-08-17T19:57:45.317Z,26.15
2018-08-17T20:00:14.547Z,26.17
2018-08-17T20:02:43.196Z,26.17
2018-08-17T20:05:11.859Z,26.16
2018-08-17T20:07:40.594Z,26.16
2018-08-17T20:10:11.358Z,26.05
2018-08-17T20:12:40.119Z,26.00
2018-08-17T20:15:09.209Z,26.02
2018-08-17T20:17:38.428Z,25.99
2018-08-17T20:20:11.522Z,25.87
2018-08-17T20:22:40.076Z,25.83
2018-08-17T20:25:13.038Z,25.84
2018-08-17T20:27:41.708Z,25.75
2018-08-17T20:30:15.572Z,25.74
2018-08-17T20:32:44.576Z,25.69
2018-08-17T20:35:13.184Z,25.66
2018-08-17T20:37:46.009Z,25.60
2018-08-17T20:40:14.904Z,25.57
2018-08-17T20:42:43.475Z,25.46
2018-08-17T20:45:12.426Z,25.49
2018-08-17T20:47:42.022Z,25.49
2018-08-17T20:50:13.043Z,25.47
2018-08-17T20:53:01.503Z,25.42
2018-08-17T20:55:30.132Z,25.40
2018-08-17T20:57:59.467Z,25.39
2018-08-17T21:00:29.792Z,25.37
2018-08-17T21:02:58.344Z,25.36
2018-08-17T21:05:26.949Z,25.32
2018-08-17T21:07:55.551Z,25.19
2018-08-17T21:10:24.124Z,25.15
2018-08-17T21:12:52.692Z,25.17
2018-08-17T21:15:21.475Z,25.12
2018-08-17T21:17:50.115Z,25.04
2018-08-17T21:20:18.728Z,25.03
2018-08-17T21:22:47.352Z,25.06
2018-08-17T21:25:15.951Z,25.05
2018-08-17T21:27:44.549Z,25.04
2018-08-17T21:30:13.178Z,25.02
2018-08-17T21:32:41.787Z,24.98
2018-08-17T21:35:10.379Z,24.88
2018-08-17T21:37:39.131Z,24.93
2018-08-17T21:40:14.644Z,24.90
2018-08-17T21:42:43.360Z,24.80
2018-08-17T21:45:11.980Z,24.81
2018-08-17T21:47:40.567Z,24.71
2018-08-17T21:50:13.795Z,24.62
2018-08-17T21:52:43.687Z,24.56
2018-08-17T21:55:12.340Z,24.32
2018-08-17T21:57:41.052Z,24.08
2018-08-17T22:00:22.101Z,23.98
2018-08-17T22:02:50.912Z,23.87
2018-08-17T22:05:25.531Z,23.81
2018-08-17T22:07:54.124Z,23.73
2018-08-17T22:10:22.759Z,23.74
2018-08-17T22:12:51.379Z,23.64
2018-08-17T22:15:20.096Z,23.67
2018-08-17T22:17:48.712Z,23.73
2018-08-17T22:20:17.293Z,23.76
2018-08-17T22:22:45.915Z,23.75
2018-08-17T22:25:16.611Z,23.57
2018-08-17T22:27:45.287Z,23.49
2018-08-17T22:30:20.607Z,23.42
2018-08-17T22:32:49.299Z,23.40
2018-08-17T22:35:18.323Z,23.38
2018-08-17T22:37:46.909Z,23.37
2018-08-17T22:40:15.556Z,23.37
2018-08-17T22:42:46.820Z,23.42
2018-08-17T22:45:15.388Z,23.42
2018-08-17T22:47:44.001Z,23.38
2018-08-17T22:50:12.599Z,23.38
2018-08-17T22:52:41.215Z,23.38
2018-08-17T22:55:10.348Z,23.43
2018-08-17T22:57:38.980Z,23.49
2018-08-17T23:00:17.104Z,23.56
2018-08-17T23:02:46.775Z,23.58
2018-08-17T23:05:17.936Z,23.60
2018-08-17T23:07:46.555Z,23.60
2018-08-17T23:10:17.230Z,23.64
2018-08-17T23:12:47.156Z,23.57
2018-08-17T23:15:15.807Z,23.64
2018-08-17T23:17:47.185Z,23.67
2018-08-17T23:20:16.231Z,23.67
2018-08-17T23:22:51.740Z,23.65
2018-08-17T23:25:20.344Z,23.67
2018-08-17T23:27:49.589Z,23.62
2018-08-17T23:30:18.608Z,23.62
2018-08-17T23:32:47.783Z,23.49
2018-08-17T23:35:16.368Z,23.50
2018-08-17T23:37:45.289Z,23.24
2018-08-17T23:40:13.939Z,23.27
2018-08-17T23:42:42.586Z,23.19
2018-08-17T23:45:13.374Z,23.07
2018-08-17T23:47:41.988Z,23.07
2018-08-17T23:50:11.863Z,22.93
2018-08-17T23:52:40.570Z,22.89
2018-08-17T23:55:12.133Z,22.87
2018-08-17T23:57:40.760Z,22.86
